createdAt,value
2022-11-29T00:00:08.952Z,50.885647
2022-11-29T00:01:08.936Z,50.885555
2022-11-29T00:02:09.072Z,50.885403
2022-11-29T00:03:09.120Z,50.885441
2022-11-29T00:04:09.880Z,50.885376
2022-11-29T00:05:08.910Z,50.885517
2022-11-29T00:06:08.879Z,50.885532
2022-11-29T00:07:08.872Z,50.885529
2022-11-29T00:08:09.021Z,50.885487
2022-11-29T00:09:41.486Z,50.885540
2022-11-29T00:10:08.852Z,50.885513
2022-11-29T00:11:08.838Z,50.885620
2022-11-29T00:12:09.893Z,50.885471
2022-11-29T00:13:08.851Z,50.884716
2022-11-29T00:14:08.873Z,50.885315
2022-11-29T00:15:08.829Z,50.885513
2022-11-29T00:16:08.891Z,50.885685
2022-11-29T00:17:08.837Z,50.885509
2022-11-29T00:18:08.819Z,50.885410
2022-11-29T00:19:08.826Z,50.885368
2022-11-29T00:20:08.799Z,50.885311
2022-11-29T00:21:08.768Z,50.885273
2022-11-29T00:22:09.446Z,50.885021
2022-11-29T00:23:08.812Z,50.885300
2022-11-29T00:24:08.807Z,50.885483
2022-11-29T00:25:08.820Z,50.886391
2022-11-29T00:26:08.730Z,50.886055
2022-11-29T00:27:08.774Z,50.885868
2022-11-29T00:28:08.753Z,50.885563
2022-11-29T00:29:08.858Z,50.884998
2022-11-29T00:30:08.772Z,50.885250
2022-11-29T00:31:08.800Z,50.885380
2022-11-29T00:32:08.759Z,50.885395
2022-11-29T00:33:09.429Z,50.885353
2022-11-29T00:34:08.763Z,50.885426
2022-11-29T00:35:09.871Z,50.885426
2022-11-29T00:36:09.716Z,50.885204
2022-11-29T00:37:08.715Z,50.885223
2022-11-29T00:38:08.707Z,50.885166
2022-11-29T00:39:08.714Z,50.885063
2022-11-29T00:40:09.427Z,50.885235
2022-11-29T00:41:08.704Z,50.885391
2022-11-29T00:42:08.691Z,50.885414
2022-11-29T00:43:08.678Z,50.885406
2022-11-29T00:44:08.632Z,50.885494
2022-11-29T00:45:08.659Z,50.885548
2022-11-29T00:46:08.746Z,50.885338
2022-11-29T00:47:08.615Z,50.885067
2022-11-29T00:48:08.645Z,50.885128
2022-11-29T00:49:08.672Z,50.885147
2022-11-29T00:50:08.655Z,50.885197
2022-11-29T00:51:08.635Z,50.885525
2022-11-29T00:52:08.665Z,50.885483
2022-11-29T00:53:08.580Z,50.885601
2022-11-29T00:54:08.592Z,50.885368
2022-11-29T00:55:08.620Z,50.885487
2022-11-29T00:56:08.600Z,50.885460
2022-11-29T00:57:08.605Z,50.885460
2022-11-29T00:58:08.533Z,50.885296
2022-11-29T00:59:08.577Z,50.885590
2022-11-29T01:00:08.526Z,50.885639
2022-11-29T01:01:08.563Z,50.885574
2022-11-29T01:02:08.516Z,50.885574
2022-11-29T01:03:08.563Z,50.885475
2022-11-29T01:04:08.558Z,50.885551
2022-11-29T01:05:08.501Z,50.885544
2022-11-29T01:06:08.485Z,50.885670
2022-11-29T01:07:08.497Z,50.885670
2022-11-29T01:08:08.444Z,50.885582
2022-11-29T01:09:08.446Z,50.885693
2022-11-29T01:10:08.461Z,50.885571
2022-11-29T01:11:08.488Z,50.885685
2022-11-29T01:12:08.449Z,50.885616
2022-11-29T01:13:08.431Z,50.885571
2022-11-29T01:14:08.413Z,50.885616
2022-11-29T01:15:08.444Z,50.885624
2022-11-29T01:16:08.461Z,50.885517
2022-11-29T01:17:08.436Z,50.885494
2022-11-29T01:18:08.433Z,50.885536
2022-11-29T01:19:08.455Z,50.885586
2022-11-29T01:20:08.387Z,50.885662
2022-11-29T01:21:08.416Z,50.885765
2022-11-29T01:22:08.384Z,50.885834
2022-11-29T01:23:08.361Z,50.885651
2022-11-29T01:24:08.379Z,50.885609
2022-11-29T01:25:08.363Z,50.885475
2022-11-29T01:26:08.391Z,50.885593
2022-11-29T01:27:08.324Z,50.885536
2022-11-29T01:28:08.350Z,50.885445
2022-11-29T01:29:08.373Z,50.885529
2022-11-29T01:30:08.326Z,50.885506
2022-11-29T01:31:08.425Z,50.885521
2022-11-29T01:32:08.379Z,50.885563
2022-11-29T01:33:08.303Z,50.885555
2022-11-29T01:34:08.306Z,50.885567
2022-11-29T01:35:08.312Z,50.885571
2022-11-29T01:36:08.310Z,50.885620
2022-11-29T01:37:08.286Z,50.885738
2022-11-29T01:38:08.317Z,50.885654
2022-11-29T01:39:08.286Z,50.885490
2022-11-29T01:40:08.285Z,50.885590
2022-11-29T01:41:08.251Z,50.885632
2022-11-29T01:42:08.281Z,50.885586
2022-11-29T01:43:08.225Z,50.885544
2022-11-29T01:44:08.255Z,50.885506
2022-11-29T01:45:08.269Z,50.885612
2022-11-29T01:46:08.346Z,50.885708
2022-11-29T01:47:08.245Z,50.885700
2022-11-29T01:48:08.177Z,50.885792
2022-11-29T01:49:08.229Z,50.885784
2022-11-29T01:50:08.218Z,50.885548
2022-11-29T01:51:08.205Z,50.885494
2022-11-29T01:52:08.209Z,50.885731
2022-11-29T01:53:08.144Z,50.885605
2022-11-29T01:54:08.164Z,50.885532
2022-11-29T01:55:08.187Z,50.885551
2022-11-29T01:56:08.170Z,50.885502
2022-11-29T01:57:08.185Z,50.885517
2022-11-29T01:58:08.154Z,50.885571
2022-11-29T01:59:08.095Z,50.885590
2022-11-29T02:00:08.170Z,50.885582
2022-11-29T02:01:08.215Z,50.885513
2022-11-29T02:02:08.300Z,50.885422
2022-11-29T02:03:08.093Z,50.885536
2022-11-29T02:04:08.115Z,50.885563
2022-11-29T02:05:08.142Z,50.885593
2022-11-29T02:06:08.093Z,50.885521
2022-11-29T02:07:08.090Z,50.885410
2022-11-29T02:08:08.183Z,50.885326
2022-11-29T02:09:08.096Z,50.885433
2022-11-29T02:10:08.060Z,50.885487
2022-11-29T02:11:08.082Z,50.885448
2022-11-29T02:12:08.078Z,50.885437
2022-11-29T02:13:08.142Z,50.885460
2022-11-29T02:14:08.041Z,50.885410
2022-11-29T02:15:08.028Z,50.885384
2022-11-29T02:16:08.118Z,50.885414
2022-11-29T02:17:08.006Z,50.885487
2022-11-29T02:18:08.054Z,50.885559
2022-11-29T02:19:08.016Z,50.885551
2022-11-29T02:20:08.010Z,50.885418
2022-11-29T02:21:07.988Z,50.885498
2022-11-29T02:22:08.040Z,50.885571
2022-11-29T02:23:07.986Z,50.885502
2022-11-29T02:24:07.973Z,50.885509
2022-11-29T02:25:08.972Z,50.885494
2022-11-29T02:26:07.985Z,50.885452
2022-11-29T02:27:07.965Z,50.885433
2022-11-29T02:28:07.947Z,50.885571
2022-11-29T02:29:07.960Z,50.885521
2022-11-29T02:30:07.961Z,50.885563
2022-11-29T02:31:07.989Z,50.885498
2022-11-29T02:32:07.924Z,50.885406
2022-11-29T02:33:07.893Z,50.885498
2022-11-29T02:34:07.959Z,50.885509
2022-11-29T02:35:07.908Z,50.885578
2022-11-29T02:36:07.908Z,50.885616
2022-11-29T02:37:11.500Z,50.885635
2022-11-29T02:38:08.858Z,50.885597
2022-11-29T02:39:07.847Z,50.885567
2022-11-29T02:40:07.893Z,50.885582
2022-11-29T02:41:07.878Z,50.885544
2022-11-29T02:42:07.820Z,50.885609
2022-11-29T02:43:07.889Z,50.885502
2022-11-29T02:44:07.828Z,50.885605
2022-11-29T02:45:07.859Z,50.885487
2022-11-29T02:46:07.901Z,50.885487
2022-11-29T02:47:07.851Z,50.885567
2022-11-29T02:48:07.794Z,50.885521
2022-11-29T02:49:07.850Z,50.885509
2022-11-29T02:50:07.781Z,50.885567
2022-11-29T02:51:07.796Z,50.885540
2022-11-29T02:52:07.817Z,50.885529
2022-11-29T02:53:07.782Z,50.885567
2022-11-29T02:54:07.744Z,50.885590
2022-11-29T02:55:07.787Z,50.885605
2022-11-29T02:56:07.741Z,50.885654
2022-11-29T02:57:07.798Z,50.885616
2022-11-29T02:58:07.715Z,50.885670
2022-11-29T02:59:07.752Z,50.885582
2022-11-29T03:00:08.610Z,50.885479
2022-11-29T03:01:07.781Z,50.885559
2022-11-29T03:02:07.749Z,50.885479
2022-11-29T03:03:07.722Z,50.885551
2022-11-29T03:04:07.670Z,50.885559
2022-11-29T03:05:07.657Z,50.885571
2022-11-29T03:06:07.668Z,50.885605
2022-11-29T03:07:07.704Z,50.885494
2022-11-29T03:08:07.749Z,50.885506
2022-11-29T03:09:07.640Z,50.885422
2022-11-29T03:10:07.643Z,50.885399
2022-11-29T03:11:07.618Z,50.885483
2022-11-29T03:12:07.603Z,50.885529
2022-11-29T03:13:07.602Z,50.885586
2022-11-29T03:14:07.656Z,50.885666
2022-11-29T03:15:07.580Z,50.885590
2022-11-29T03:16:07.696Z,50.885563
2022-11-29T03:17:07.607Z,50.885498
2022-11-29T03:18:07.638Z,50.885544
2022-11-29T03:19:07.650Z,50.885525
2022-11-29T03:20:07.600Z,50.885578
2022-11-29T03:21:07.544Z,50.885548
2022-11-29T03:22:07.571Z,50.885567
2022-11-29T03:23:07.531Z,50.885574
2022-11-29T03:24:07.563Z,50.885555
2022-11-29T03:25:07.649Z,50.885529
2022-11-29T03:26:07.546Z,50.885540
2022-11-29T03:27:07.556Z,50.885517
2022-11-29T03:28:07.545Z,50.885651
2022-11-29T03:29:07.507Z,50.885643
2022-11-29T03:30:07.580Z,50.885677
2022-11-29T03:31:07.576Z,50.885685
2022-11-29T03:32:07.470Z,50.885250
2022-11-29T03:33:07.458Z,50.885471
2022-11-29T03:34:07.486Z,50.885582
2022-11-29T03:35:07.468Z,50.885513
2022-11-29T03:36:07.473Z,50.885620
2022-11-29T03:37:07.485Z,50.885605
2022-11-29T03:38:07.473Z,50.885601
2022-11-29T03:39:07.442Z,50.885525
2022-11-29T03:40:07.481Z,50.885468
2022-11-29T03:41:07.460Z,50.885349
2022-11-29T03:42:07.429Z,50.885437
2022-11-29T03:43:07.405Z,50.885532
2022-11-29T03:44:07.415Z,50.885521
2022-11-29T03:45:07.424Z,50.885563
2022-11-29T03:46:07.476Z,50.885567
2022-11-29T03:47:07.504Z,50.885399
2022-11-29T03:48:07.409Z,50.885387
2022-11-29T03:49:07.380Z,50.885532
2022-11-29T03:50:07.345Z,50.885559
2022-11-29T03:51:07.370Z,50.885517
2022-11-29T03:52:07.380Z,50.885517
2022-11-29T03:53:07.335Z,50.885403
2022-11-29T03:54:07.346Z,50.885418
2022-11-29T03:55:07.354Z,50.885513
2022-11-29T03:56:07.341Z,50.885525
2022-11-29T03:57:07.297Z,50.885513
2022-11-29T03:58:07.404Z,50.885414
2022-11-29T03:59:07.328Z,50.885494
2022-11-29T04:00:07.331Z,50.885494
2022-11-29T04:01:07.353Z,50.885460
2022-11-29T04:02:07.289Z,50.885525
2022-11-29T04:03:07.655Z,50.885578
2022-11-29T04:04:07.275Z,50.885521
2022-11-29T04:05:07.251Z,50.885567
2022-11-29T04:06:07.264Z,50.885712
2022-11-29T04:07:07.268Z,50.885639
2022-11-29T04:08:07.274Z,50.885696
2022-11-29T04:09:07.248Z,50.885803
2022-11-29T04:10:07.241Z,50.885536
2022-11-29T04:11:07.223Z,50.885563
2022-11-29T04:12:07.229Z,50.885567
2022-11-29T04:13:07.215Z,50.885605
2022-11-29T04:14:07.390Z,50.885563
2022-11-29T04:15:10.446Z,50.885559
2022-11-29T04:16:08.312Z,50.885551
2022-11-29T04:17:07.164Z,50.885498
2022-11-29T04:18:07.165Z,50.885551
2022-11-29T04:19:07.200Z,50.885593
2022-11-29T04:20:07.176Z,50.885555
2022-11-29T04:21:07.192Z,50.885590
2022-11-29T04:22:07.153Z,50.885479
2022-11-29T04:23:07.164Z,50.885517
2022-11-29T04:24:07.116Z,50.885490
2022-11-29T04:25:07.159Z,50.885479
2022-11-29T04:26:07.140Z,50.885479
2022-11-29T04:27:07.084Z,50.885536
2022-11-29T04:28:07.119Z,50.885574
2022-11-29T04:29:07.111Z,50.885509
2022-11-29T04:30:07.057Z,50.885609
2022-11-29T04:31:07.130Z,50.885620
2022-11-29T04:32:07.069Z,50.885582
2022-11-29T04:33:07.052Z,50.885609
2022-11-29T04:34:07.073Z,50.885571
2022-11-29T04:35:07.090Z,50.885548
2022-11-29T04:36:07.174Z,50.885620
2022-11-29T04:37:07.040Z,50.885612
2022-11-29T04:38:07.058Z,50.885624
2022-11-29T04:39:07.041Z,50.885586
2022-11-29T04:40:07.018Z,50.885525
2022-11-29T04:41:06.990Z,50.885586
2022-11-29T04:42:07.089Z,50.885597
2022-11-29T04:43:07.007Z,50.885540
2022-11-29T04:44:06.982Z,50.885452
2022-11-29T04:45:07.003Z,50.885578
2022-11-29T04:46:07.001Z,50.885601
2022-11-29T04:47:07.189Z,50.885578
2022-11-29T04:48:06.970Z,50.885582
2022-11-29T04:49:06.946Z,50.885529
2022-11-29T04:50:06.974Z,50.885677
2022-11-29T04:51:06.946Z,50.885468
2022-11-29T04:52:06.936Z,50.885567
2022-11-29T04:53:07.049Z,50.885559
2022-11-29T04:54:06.914Z,50.885662
2022-11-29T04:55:06.892Z,50.885532
2022-11-29T04:56:07.920Z,50.885590
2022-11-29T04:57:06.895Z,50.885525
2022-11-29T04:58:06.933Z,50.885551
2022-11-29T04:59:06.880Z,50.885475
2022-11-29T05:00:06.888Z,50.885563
2022-11-29T05:01:06.854Z,50.885666
2022-11-29T05:02:06.880Z,50.885551
2022-11-29T05:03:06.897Z,50.885555
2022-11-29T05:04:06.912Z,50.885593
2022-11-29T05:05:06.817Z,50.885361
2022-11-29T05:06:06.793Z,50.885502
2022-11-29T05:07:06.833Z,50.885555
2022-11-29T05:08:06.808Z,50.885544
2022-11-29T05:09:06.892Z,50.885326
2022-11-29T05:10:06.829Z,50.885605
2022-11-29T05:11:06.778Z,50.885529
2022-11-29T05:12:06.793Z,50.885525
2022-11-29T05:13:06.814Z,50.885715
2022-11-29T05:14:06.788Z,50.885635
2022-11-29T05:15:06.832Z,50.885563
2022-11-29T05:16:06.803Z,50.885414
2022-11-29T05:17:06.761Z,50.885429
2022-11-29T05:18:06.794Z,50.885445
2022-11-29T05:19:06.731Z,50.885574
2022-11-29T05:20:06.755Z,50.885700
2022-11-29T05:21:06.723Z,50.885464
2022-11-29T05:22:06.723Z,50.885548
2022-11-29T05:23:06.682Z,50.885540
2022-11-29T05:24:06.699Z,50.885574
2022-11-29T05:25:06.710Z,50.885632
2022-11-29T05:26:06.821Z,50.885574
2022-11-29T05:27:06.708Z,50.885651
2022-11-29T05:28:10.009Z,50.885811
2022-11-29T05:29:06.668Z,50.885731
2022-11-29T05:30:06.698Z,50.885635
2022-11-29T05:31:06.829Z,50.885544
2022-11-29T05:32:06.655Z,50.885574
2022-11-29T05:33:06.663Z,50.885551
2022-11-29T05:34:06.640Z,50.885593
2022-11-29T05:35:06.708Z,50.885479
2022-11-29T05:36:06.643Z,50.885513
2022-11-29T05:37:06.659Z,50.885685
2022-11-29T05:38:06.658Z,50.885750
2022-11-29T05:39:06.602Z,50.885773
2022-11-29T05:40:06.640Z,50.885551
2022-11-29T05:41:06.598Z,50.885597
2022-11-29T05:42:06.736Z,50.885750
2022-11-29T05:43:06.619Z,50.885895
2022-11-29T05:44:06.611Z,50.885738
2022-11-29T05:45:06.622Z,50.885487
2022-11-29T05:46:06.630Z,50.885551
2022-11-29T05:47:06.577Z,50.885452
2022-11-29T05:48:06.567Z,50.885521
2022-11-29T05:49:06.575Z,50.885693
2022-11-29T05:50:06.513Z,50.885632
2022-11-29T05:51:07.206Z,50.885643
2022-11-29T05:52:06.525Z,50.885567
2022-11-29T05:53:06.588Z,50.885605
2022-11-29T05:54:06.531Z,50.885571
2022-11-29T05:55:06.489Z,50.885551
2022-11-29T05:56:06.485Z,50.885620
2022-11-29T05:57:06.487Z,50.885612
2022-11-29T05:58:07.526Z,50.885563
2022-11-29T05:59:06.489Z,50.885563
2022-11-29T06:00:06.491Z,50.885483
2022-11-29T06:01:06.466Z,50.885525
2022-11-29T06:02:06.535Z,50.885586
2022-11-29T06:03:06.530Z,50.885597
2022-11-29T06:04:11.662Z,50.885597
2022-11-29T06:05:08.453Z,50.885578
2022-11-29T06:06:06.429Z,50.885567
2022-11-29T06:07:06.434Z,50.885521
2022-11-29T06:08:06.440Z,50.885536
2022-11-29T06:09:06.542Z,50.885525
2022-11-29T06:10:06.388Z,50.885574
2022-11-29T06:11:06.396Z,50.885609
2022-11-29T06:12:06.401Z,50.885597
2022-11-29T06:13:06.433Z,50.885521
2022-11-29T06:14:06.358Z,50.885567
2022-11-29T06:15:06.490Z,50.885605
2022-11-29T06:16:06.396Z,50.885593
2022-11-29T06:17:06.379Z,50.885601
2022-11-29T06:18:06.377Z,50.885635
2022-11-29T06:19:06.325Z,50.885471
2022-11-29T06:20:06.373Z,50.885540
2022-11-29T06:21:06.313Z,50.885563
2022-11-29T06:22:06.311Z,50.885479
2022-11-29T06:23:06.333Z,50.885540
2022-11-29T06:24:06.314Z,50.885574
2022-11-29T06:25:06.306Z,50.885612
2022-11-29T06:26:06.409Z,50.885723
2022-11-29T06:27:06.318Z,50.885151
2022-11-29T06:28:06.280Z,50.885330
2022-11-29T06:29:06.288Z,50.885406
2022-11-29T06:30:06.242Z,50.885426
2022-11-29T06:31:06.312Z,50.885426
2022-11-29T06:32:06.256Z,50.885536
2022-11-29T06:33:06.235Z,50.885586
2022-11-29T06:34:06.223Z,50.885487
2022-11-29T06:35:06.232Z,50.885448
2022-11-29T06:36:06.226Z,50.885590
2022-11-29T06:37:07.239Z,50.885395
2022-11-29T06:38:06.199Z,50.885494
2022-11-29T06:39:06.212Z,50.885574
2022-11-29T06:40:06.223Z,50.885391
2022-11-29T06:41:06.168Z,50.885475
2022-11-29T06:42:06.229Z,50.885525
2022-11-29T06:43:06.173Z,50.885502
2022-11-29T06:44:06.191Z,50.885464
2022-11-29T06:45:06.204Z,50.885227
2022-11-29T06:46:06.165Z,50.885326
2022-11-29T06:47:06.145Z,50.885437
2022-11-29T06:48:06.239Z,50.885368
2022-11-29T06:49:06.144Z,50.885406
2022-11-29T06:50:06.128Z,50.885460
2022-11-29T06:51:06.123Z,50.885448
2022-11-29T06:52:06.137Z,50.885406
2022-11-29T06:53:06.101Z,50.885529
2022-11-29T06:54:06.080Z,50.885490
2022-11-29T06:55:06.102Z,50.885475
2022-11-29T06:56:06.088Z,50.885509
2022-11-29T06:57:06.106Z,50.885685
2022-11-29T06:58:06.074Z,50.885674
2022-11-29T06:59:06.218Z,50.885536
2022-11-29T07:00:06.659Z,50.885521
2022-11-29T07:01:06.122Z,50.885380
2022-11-29T07:02:06.099Z,50.885284
2022-11-29T07:03:06.044Z,50.885334
2022-11-29T07:04:06.141Z,50.885288
2022-11-29T07:05:06.035Z,50.885513
2022-11-29T07:06:06.153Z,50.885666
2022-11-29T07:07:05.990Z,50.885674
2022-11-29T07:08:06.002Z,50.885605
2022-11-29T07:09:06.011Z,50.885353
2022-11-29T07:10:08.293Z,50.885380
2022-11-29T07:11:06.952Z,50.885399
2022-11-29T07:12:06.940Z,50.885296
2022-11-29T07:13:05.986Z,50.885593
2022-11-29T07:14:05.961Z,50.885712
2022-11-29T07:15:05.999Z,50.885487
2022-11-29T07:16:05.999Z,50.885571
2022-11-29T07:17:05.933Z,50.885551
2022-11-29T07:18:05.935Z,50.885406
2022-11-29T07:19:05.951Z,50.885590
2022-11-29T07:20:05.924Z,50.885593
2022-11-29T07:21:05.939Z,50.885193
2022-11-29T07:22:05.903Z,50.885143
2022-11-29T07:23:05.918Z,50.885487
2022-11-29T07:24:05.898Z,50.885487
2022-11-29T07:25:05.902Z,50.885582
2022-11-29T07:26:05.931Z,50.885639
2022-11-29T07:27:05.873Z,50.885376
2022-11-29T07:28:05.858Z,50.885288
2022-11-29T07:29:05.865Z,50.885437
2022-11-29T07:30:05.878Z,50.885521
2022-11-29T07:31:05.893Z,50.885464
2022-11-29T07:32:05.856Z,50.885502
2022-11-29T07:33:05.873Z,50.885578
2022-11-29T07:34:05.869Z,50.885773
2022-11-29T07:35:05.820Z,50.885952
2022-11-29T07:36:05.838Z,50.886116
2022-11-29T07:37:05.852Z,50.886089
2022-11-29T07:38:05.797Z,50.885815
2022-11-29T07:39:05.783Z,50.885693
2022-11-29T07:40:05.779Z,50.885689
2022-11-29T07:41:05.776Z,50.885677
2022-11-29T07:42:05.762Z,50.885674
2022-11-29T07:43:06.199Z,50.885727
2022-11-29T07:44:05.775Z,50.885815
2022-11-29T07:45:05.711Z,50.885777
2022-11-29T07:46:05.758Z,50.885643
2022-11-29T07:47:05.870Z,50.885624
2022-11-29T07:48:05.729Z,50.885773
2022-11-29T07:49:05.726Z,50.886063
2022-11-29T07:50:05.715Z,50.886532
2022-11-29T07:51:05.719Z,50.886406
2022-11-29T07:52:05.690Z,50.886269
2022-11-29T07:53:05.685Z,50.886127
2022-11-29T07:54:05.691Z,50.886158
2022-11-29T07:55:05.719Z,50.886139
2022-11-29T07:56:05.654Z,50.886219
2022-11-29T07:57:05.653Z,50.886169
2022-11-29T07:58:05.652Z,50.886162
2022-11-29T07:59:05.737Z,50.886177
2022-11-29T08:00:05.617Z,50.886154
2022-11-29T08:01:05.686Z,50.886189
2022-11-29T08:02:11.503Z,50.886200
2022-11-29T08:03:07.610Z,50.885815
2022-11-29T08:04:05.609Z,50.885666
2022-11-29T08:05:05.740Z,50.885838
2022-11-29T08:06:05.584Z,50.885632
2022-11-29T08:07:05.614Z,50.885754
2022-11-29T08:08:05.560Z,50.885517
2022-11-29T08:09:05.562Z,50.885513
2022-11-29T08:10:05.661Z,50.885612
2022-11-29T08:11:05.551Z,50.885498
2022-11-29T08:12:05.609Z,50.885502
2022-11-29T08:13:05.516Z,50.885391
2022-11-29T08:14:05.516Z,50.885384
2022-11-29T08:15:05.545Z,50.885384
2022-11-29T08:16:05.683Z,50.885319
2022-11-29T08:17:05.530Z,50.885475
2022-11-29T08:18:05.491Z,50.885406
2022-11-29T08:19:05.512Z,50.885536
2022-11-29T08:20:05.472Z,50.885445
2022-11-29T08:21:05.612Z,50.885506
2022-11-29T08:22:05.503Z,50.885483
2022-11-29T08:23:05.492Z,50.885490
2022-11-29T08:24:05.579Z,50.885441
2022-11-29T08:25:05.477Z,50.885357
2022-11-29T08:26:05.481Z,50.885658
2022-11-29T08:27:05.563Z,50.885674
2022-11-29T08:28:05.425Z,50.885471
2022-11-29T08:29:06.417Z,50.885441
2022-11-29T08:30:05.411Z,50.885464
2022-11-29T08:31:05.443Z,50.885662
2022-11-29T08:32:05.544Z,50.885471
2022-11-29T08:33:05.405Z,50.885609
2022-11-29T08:34:05.459Z,50.885567
2022-11-29T08:35:05.417Z,50.885498
2022-11-29T08:36:05.425Z,50.885471
2022-11-29T08:37:05.384Z,50.885513
2022-11-29T08:38:05.516Z,50.885483
2022-11-29T08:39:09.169Z,50.885483
2022-11-29T08:40:05.342Z,50.885422
2022-11-29T08:41:05.354Z,50.885498
2022-11-29T08:42:05.401Z,50.885456
2022-11-29T08:43:05.343Z,50.885502
2022-11-29T08:44:05.327Z,50.885479
2022-11-29T08:45:05.339Z,50.885525
2022-11-29T08:46:05.356Z,50.885437
2022-11-29T08:47:05.300Z,50.885551
2022-11-29T08:48:05.284Z,50.885490
2022-11-29T08:49:05.304Z,50.885483
2022-11-29T08:50:05.303Z,50.885521
2022-11-29T08:51:05.363Z,50.885540
2022-11-29T08:52:05.284Z,50.885498
2022-11-29T08:53:05.256Z,50.885548
2022-11-29T08:54:05.297Z,50.885494
2022-11-29T08:55:05.294Z,50.885548
2022-11-29T08:56:23.624Z,50.885559
2022-11-29T08:57:37.937Z,50.885513
2022-11-29T08:58:07.239Z,50.885445
2022-11-29T08:59:05.226Z,50.885468
2022-11-29T09:00:05.232Z,50.885715
2022-11-29T09:01:06.286Z,50.885708
2022-11-29T09:02:05.304Z,50.885654
2022-11-29T09:03:05.211Z,50.885654
2022-11-29T09:04:05.218Z,50.885666
2022-11-29T09:05:05.197Z,50.885632
2022-11-29T09:06:10.484Z,50.885574
2022-11-29T09:07:07.183Z,50.885544
2022-11-29T09:08:05.195Z,50.885574
2022-11-29T09:09:05.202Z,50.885609
2022-11-29T09:10:05.212Z,50.885632
2022-11-29T09:11:05.181Z,50.885532
2022-11-29T09:12:05.123Z,50.885509
2022-11-29T09:13:05.157Z,50.885513
2022-11-29T09:14:05.164Z,50.885498
2022-11-29T09:15:05.146Z,50.885593
2022-11-29T09:16:05.225Z,50.885612
2022-11-29T09:17:05.103Z,50.885590
2022-11-29T09:18:05.082Z,50.885551
2022-11-29T09:19:05.095Z,50.885494
2022-11-29T09:20:05.109Z,50.885490
2022-11-29T09:21:05.151Z,50.885555
2022-11-29T09:22:05.111Z,50.885563
2022-11-29T09:23:05.075Z,50.885437
2022-11-29T09:24:05.048Z,50.885426
2022-11-29T09:25:05.017Z,50.885475
2022-11-29T09:26:05.018Z,50.885567
2022-11-29T09:27:05.073Z,50.885601
2022-11-29T09:28:05.039Z,50.885571
2022-11-29T09:29:05.028Z,50.885513
2022-11-29T09:30:05.044Z,50.885509
2022-11-29T09:31:05.014Z,50.885517
2022-11-29T09:32:05.042Z,50.885513
2022-11-29T09:33:04.997Z,50.885494
2022-11-29T09:34:05.032Z,50.885563
2022-11-29T09:35:05.056Z,50.885536
2022-11-29T09:36:04.950Z,50.885548
2022-11-29T09:37:04.977Z,50.885559
2022-11-29T09:38:04.988Z,50.885502
2022-11-29T09:39:04.974Z,50.885513
2022-11-29T09:40:06.744Z,50.885597
2022-11-29T09:41:04.953Z,50.885494
2022-11-29T09:42:04.927Z,50.885361
2022-11-29T09:43:06.033Z,50.885399
2022-11-29T09:44:04.910Z,50.885456
2022-11-29T09:45:04.939Z,50.885574
2022-11-29T09:46:04.944Z,50.885521
2022-11-29T09:47:04.914Z,50.885571
2022-11-29T09:48:04.911Z,50.885628
2022-11-29T09:49:05.120Z,50.885563
2022-11-29T09:50:04.900Z,50.885323
2022-11-29T09:51:04.866Z,50.885418
2022-11-29T09:52:04.867Z,50.885422
2022-11-29T09:53:04.894Z,50.885582
2022-11-29T09:54:04.873Z,50.885475
2022-11-29T09:55:04.868Z,50.885456
2022-11-29T09:56:04.874Z,50.885517
2022-11-29T09:57:08.990Z,50.885487
2022-11-29T09:58:05.836Z,50.885529
2022-11-29T09:59:04.856Z,50.885639
2022-11-29T10:00:04.833Z,50.885509
2022-11-29T10:01:04.855Z,50.885513
2022-11-29T10:02:04.831Z,50.885498
2022-11-29T10:03:04.771Z,50.885452
2022-11-29T10:04:04.825Z,50.885487
2022-11-29T10:05:04.830Z,50.885403
2022-11-29T10:06:04.816Z,50.885357
2022-11-29T10:07:04.763Z,50.885494
2022-11-29T10:08:04.772Z,50.885521
2022-11-29T10:09:04.737Z,50.885548
2022-11-29T10:10:04.764Z,50.885624
2022-11-29T10:11:04.887Z,50.885677
2022-11-29T10:12:04.754Z,50.885529
2022-11-29T10:13:04.753Z,50.885590
2022-11-29T10:14:04.734Z,50.885715
2022-11-29T10:15:04.730Z,50.885513
2022-11-29T10:16:04.871Z,50.885544
2022-11-29T10:17:04.697Z,50.885456
2022-11-29T10:18:04.717Z,50.885277
2022-11-29T10:19:04.713Z,50.885303
2022-11-29T10:20:04.685Z,50.885342
2022-11-29T10:21:04.693Z,50.885426
2022-11-29T10:22:04.716Z,50.885414
2022-11-29T10:23:04.654Z,50.885365
2022-11-29T10:24:04.653Z,50.885441
2022-11-29T10:25:04.677Z,50.885323
2022-11-29T10:26:04.677Z,50.885258
2022-11-29T10:27:04.685Z,50.885254
2022-11-29T10:28:04.624Z,50.885319
2022-11-29T10:29:04.662Z,50.885384
2022-11-29T10:30:04.663Z,50.885345
2022-11-29T10:31:04.670Z,50.885269
2022-11-29T10:32:09.921Z,50.885372
2022-11-29T10:33:06.726Z,50.885338
2022-11-29T10:34:04.606Z,50.885303
2022-11-29T10:35:04.569Z,50.885342
2022-11-29T10:36:04.615Z,50.885452
2022-11-29T10:37:04.614Z,50.885406
2022-11-29T10:38:29.924Z,50.885559
2022-11-29T10:39:10.040Z,50.885590
2022-11-29T10:40:04.770Z,50.885624
2022-11-29T10:41:04.590Z,50.885574
2022-11-29T10:42:04.550Z,50.885548
2022-11-29T10:43:04.563Z,50.885502
2022-11-29T10:44:04.568Z,50.885479
2022-11-29T10:45:04.607Z,50.885441
2022-11-29T10:46:04.596Z,50.885391
2022-11-29T10:47:10.487Z,50.885185
2022-11-29T10:48:06.524Z,50.885254
2022-11-29T10:49:04.496Z,50.885151
2022-11-29T10:50:04.559Z,50.885220
2022-11-29T10:51:04.505Z,50.885204
2022-11-29T10:52:04.501Z,50.885227
2022-11-29T10:53:04.486Z,50.885258
2022-11-29T10:54:04.484Z,50.885445
2022-11-29T10:55:04.502Z,50.885586
2022-11-29T10:56:04.616Z,50.885456
2022-11-29T10:57:04.463Z,50.885441
2022-11-29T10:58:04.439Z,50.885460
2022-11-29T10:59:04.476Z,50.885555
2022-11-29T11:00:04.442Z,50.885601
2022-11-29T11:01:04.590Z,50.885612
2022-11-29T11:02:04.451Z,50.885578
2022-11-29T11:03:04.419Z,50.885548
2022-11-29T11:04:04.461Z,50.885593
2022-11-29T11:05:04.397Z,50.885601
2022-11-29T11:06:04.449Z,50.885666
2022-11-29T11:07:04.423Z,50.885616
2022-11-29T11:08:04.399Z,50.885586
2022-11-29T11:09:04.378Z,50.885643
2022-11-29T11:10:04.462Z,50.885582
2022-11-29T11:11:04.370Z,50.885609
2022-11-29T11:12:04.511Z,50.885620
2022-11-29T11:13:04.366Z,50.885632
2022-11-29T11:14:04.398Z,50.885628
2022-11-29T11:15:04.348Z,50.885647
2022-11-29T11:16:04.360Z,50.885632
2022-11-29T11:17:04.338Z,50.885830
2022-11-29T11:18:04.334Z,50.885956
2022-11-29T11:19:04.341Z,50.885845
2022-11-29T11:20:04.313Z,50.885677
2022-11-29T11:21:04.279Z,50.885643
2022-11-29T11:22:04.320Z,50.885574
2022-11-29T11:23:04.312Z,50.885578
2022-11-29T11:24:04.309Z,50.885559